Time;durP1;ratioP1;P1;durP2;ratioP2;P2;SDS_P1;SDS_P2;PMS_P1;PMS_P2;Temp;Humidity;BMP_temperature;BMP_pressure;BME280_temperature;BME280_humidity;BME280_pressure;Samples;Min_cycle;Max_cycle;Signal;HPM_P1;HPM_P2
2023/11/11 00:01:55;;;;;;;2.78;1.45;;;;;;;;;;5044587;28;20041;-58
2023/11/11 00:04:22;;;;;;;1.77;1.30;;;;;;;;;;5040315;28;20037;-58
2023/11/11 00:06:49;;;;;;;2.40;1.08;;;;;;;;;;5041376;28;20085;-58
2023/11/11 00:09:16;;;;;;;2.17;1.13;;;;;;;;;;5043181;28;20060;-59
2023/11/11 00:11:44;;;;;;;1.90;1.05;;;;;;;;;;5042509;28;20048;-59
2023/11/11 00:14:12;;;;;;;2.30;1.05;;;;;;;;;;5041023;28;20045;-59
2023/11/11 00:16:38;;;;;;;1.10;0.77;;;;;;;;;;5034423;28;20038;-59
2023/11/11 00:19:04;;;;;;;2.30;0.90;;;;;;;;;;5037138;28;20051;-58
2023/11/11 00:21:30;;;;;;;0.95;0.60;;;;;;;;;;5041026;28;20029;-59
2023/11/11 00:23:56;;;;;;;2.50;1.08;;;;;;;;;;5040757;28;20037;-59
2023/11/11 00:26:23;;;;;;;1.52;0.90;;;;;;;;;;5037727;28;20036;-57
2023/11/11 00:28:49;;;;;;;1.00;0.63;;;;;;;;;;5038537;28;20064;-59
2023/11/11 00:31:16;;;;;;;1.02;0.80;;;;;;;;;;5034220;28;20060;-58
2023/11/11 00:33:44;;;;;;;1.02;0.60;;;;;;;;;;5038179;28;20041;-58
2023/11/11 00:36:10;;;;;;;0.77;0.57;;;;;;;;;;5044008;28;20029;-57
2023/11/11 00:38:36;;;;;;;1.77;0.60;;;;;;;;;;5045950;28;20501;-58
2023/11/11 00:41:06;;;;;;;0.73;0.45;;;;;;;;;;5045355;28;21542;-58
2023/11/11 00:43:32;;;;;;;;;;;;;;;;;;5045221;28;20032;-59
2023/11/11 00:45:58;;;;;;;0.40;0.40;;;;;;;;;;5044896;28;19913;-58
2023/11/11 00:48:24;;;;;;;0.40;0.40;;;;;;;;;;5042057;28;20401;-58
2023/11/11 00:50:51;;;;;;;0.77;0.40;;;;;;;;;;5043729;28;20052;-58
2023/11/11 00:53:20;;;;;;;1.05;0.50;;;;;;;;;;5042595;28;20053;-58
2023/11/11 00:55:47;;;;;;;0.30;0.30;;;;;;;;;;5037757;28;20502;-58
2023/11/11 00:58:13;;;;;;;0.85;0.43;;;;;;;;;;5025609;28;20044;-58
2023/11/11 01:00:39;;;;;;;0.30;0.30;;;;;;;;;;5042090;28;20037;-57
2023/11/11 01:03:06;;;;;;;0.30;0.30;;;;;;;;;;5036622;28;20502;-59
2023/11/11 01:05:32;;;;;;;0.73;0.30;;;;;;;;;;5044939;28;20052;-59
2023/11/11 01:07:58;;;;;;;0.52;0.40;;;;;;;;;;5040470;28;20056;-59
2023/11/11 01:10:25;;;;;;;0.40;0.40;;;;;;;;;;5044905;28;20040;-58
2023/11/11 01:12:51;;;;;;;0.47;0.38;;;;;;;;;;5045666;28;20029;-58
2023/11/11 01:15:17;;;;;;;0.32;0.32;;;;;;;;;;5045121;28;21550;-58
2023/11/11 01:17:44;;;;;;;0.22;0.22;;;;;;;;;;5046497;28;20044;-58
2023/11/11 01:20:12;;;;;;;0.30;0.30;;;;;;;;;;5043981;28;20049;-58
2023/11/11 01:22:39;;;;;;;2.20;0.40;;;;;;;;;;5048709;28;20036;-58
2023/11/11 01:25:07;;;;;;;1.00;0.40;;;;;;;;;;5047619;28;20048;-58
2023/11/11 01:27:35;;;;;;;0.40;0.40;;;;;;;;;;5043997;28;20052;-58
2023/11/11 01:30:02;;;;;;;0.73;0.50;;;;;;;;;;5049221;28;20044;-58
2023/11/11 01:32:28;;;;;;;1.27;0.82;;;;;;;;;;5049353;28;20040;-58
2023/11/11 01:34:55;;;;;;;0.57;0.57;;;;;;;;;;5046836;28;20042;-58
2023/11/11 01:37:21;;;;;;;0.40;0.40;;;;;;;;;;5049549;28;20051;-57
2023/11/11 01:39:48;;;;;;;0.93;0.80;;;;;;;;;;5049464;28;20406;-58
2023/11/11 01:42:15;;;;;;;1.17;0.60;;;;;;;;;;5047286;28;20125;-58
2023/11/11 01:44:41;;;;;;;0.63;0.40;;;;;;;;;;5048572;28;20032;-58
2023/11/11 01:47:08;;;;;;;0.80;0.47;;;;;;;;;;5049047;28;20025;-58
2023/11/11 01:49:34;;;;;;;0.60;0.50;;;;;;;;;;5049453;28;20041;-58
2023/11/11 01:52:02;;;;;;;0.68;0.50;;;;;;;;;;5045957;28;20044;-57
2023/11/11 01:54:29;;;;;;;0.88;0.40;;;;;;;;;;5050337;28;20048;-57
2023/11/11 01:56:57;;;;;;;0.60;0.40;;;;;;;;;;5049396;28;20402;-58
2023/11/11 01:59:26;;;;;;;0.65;0.40;;;;;;;;;;5044813;28;20040;-58
2023/11/11 02:01:53;;;;;;;0.82;0.52;;;;;;;;;;5048718;28;20037;-59
2023/11/11 02:04:20;;;;;;;0.82;0.70;;;;;;;;;;5046038;28;20429;-59
2023/11/11 02:06:49;;;;;;;0.95;0.65;;;;;;;;;;5049387;28;20051;-58
2023/11/11 02:09:18;;;;;;;0.88;0.40;;;;;;;;;;5047280;28;20498;-58
2023/11/11 02:11:47;;;;;;;1.00;0.57;;;;;;;;;;5042860;28;20430;-58
2023/11/11 02:14:14;;;;;;;;;;;;;;;;;;5047832;28;20517;-59
2023/11/11 02:16:40;;;;;;;0.80;0.40;;;;;;;;;;5048348;28;19917;-58
2023/11/11 02:19:06;;;;;;;0.57;0.40;;;;;;;;;;5048347;28;20037;-58
2023/11/11 02:21:32;;;;;;;3.15;0.50;;;;;;;;;;5050142;28;20045;-59
2023/11/11 02:24:00;;;;;;;0.90;0.73;;;;;;;;;;5049338;28;20064;-58
2023/11/11 02:26:26;;;;;;;0.60;0.40;;;;;;;;;;5043619;28;20025;-58
2023/11/11 02:28:52;;;;;;;0.40;0.40;;;;;;;;;;5048537;28;20040;-59
2023/11/11 02:31:18;;;;;;;0.50;0.50;;;;;;;;;;5045581;28;20052;-57
2023/11/11 02:33:44;;;;;;;1.27;0.45;;;;;;;;;;5048349;28;20033;-58
2023/11/11 02:36:11;;;;;;;0.40;0.40;;;;;;;;;;5048590;28;20041;-59
2023/11/11 02:38:37;;;;;;;0.55;0.40;;;;;;;;;;5046547;28;20048;-58
2023/11/11 02:41:03;;;;;;;1.17;0.40;;;;;;;;;;5043384;28;20055;-58
2023/11/11 02:43:29;;;;;;;0.30;0.30;;;;;;;;;;5044293;28;20037;-58
2023/11/11 02:45:55;;;;;;;0.80;0.30;;;;;;;;;;5042734;28;20536;-58
2023/11/11 02:48:21;;;;;;;0.30;0.30;;;;;;;;;;5043798;28;20044;-58
2023/11/11 02:50:47;;;;;;;0.30;0.30;;;;;;;;;;5042039;28;20025;-57
2023/11/11 02:53:13;;;;;;;0.40;0.40;;;;;;;;;;5041982;28;20040;-57
2023/11/11 02:55:40;;;;;;;0.32;0.32;;;;;;;;;;5041519;28;20048;-58
2023/11/11 02:58:06;;;;;;;0.75;0.43;;;;;;;;;;5043189;28;20052;-57
2023/11/11 03:00:32;;;;;;;0.60;0.45;;;;;;;;;;5046765;28;20045;-58
2023/11/11 03:02:59;;;;;;;0.50;0.40;;;;;;;;;;5045247;28;20045;-58
2023/11/11 03:05:25;;;;;;;0.52;0.47;;;;;;;;;;5040114;28;20040;-58
2023/11/11 03:07:52;;;;;;;1.15;0.40;;;;;;;;;;5043005;28;20055;-58
2023/11/11 03:10:18;;;;;;;0.88;0.88;;;;;;;;;;5044865;28;20033;-58
2023/11/11 03:12:44;;;;;;;0.80;0.80;;;;;;;;;;5043678;28;20407;-58
2023/11/11 03:15:10;;;;;;;0.80;0.50;;;;;;;;;;5040834;28;20034;-59
2023/11/11 03:17:37;;;;;;;1.63;0.60;;;;;;;;;;5045103;28;20048;-57
2023/11/11 03:20:03;;;;;;;1.15;0.80;;;;;;;;;;5045055;28;20876;-58
2023/11/11 03:22:30;;;;;;;2.38;0.60;;;;;;;;;;5048464;28;20071;-57
2023/11/11 03:24:57;;;;;;;1.05;0.82;;;;;;;;;;5043839;28;20052;-58
2023/11/11 03:27:23;;;;;;;0.63;0.50;;;;;;;;;;5043549;28;20505;-59
2023/11/11 03:29:49;;;;;;;0.60;0.55;;;;;;;;;;5047268;28;20044;-58
2023/11/11 03:32:15;;;;;;;1.05;0.60;;;;;;;;;;5047924;28;20382;-58
2023/11/11 03:34:42;;;;;;;0.90;0.60;;;;;;;;;;5044739;28;20387;-58
2023/11/11 03:37:08;;;;;;;0.60;0.50;;;;;;;;;;5039949;28;20347;-59
2023/11/11 03:39:34;;;;;;;0.40;0.40;;;;;;;;;;5047720;28;20035;-58
2023/11/11 03:42:00;;;;;;;1.52;0.50;;;;;;;;;;5048226;28;20033;-59
2023/11/11 03:44:26;;;;;;;1.92;0.50;;;;;;;;;;5042590;28;20048;-58
2023/11/11 03:46:53;;;;;;;0.30;0.30;;;;;;;;;;5047325;28;20036;-58
2023/11/11 03:49:19;;;;;;;0.68;0.50;;;;;;;;;;5045599;28;20045;-58
2023/11/11 03:51:45;;;;;;;0.30;0.30;;;;;;;;;;5043903;28;20037;-58
2023/11/11 03:54:11;;;;;;;6.18;1.67;;;;;;;;;;5046266;28;20037;-58
2023/11/11 03:56:37;;;;;;;0.70;0.43;;;;;;;;;;5046538;28;20662;-58
2023/11/11 03:59:04;;;;;;;2.55;0.40;;;;;;;;;;5045929;28;20049;-58
2023/11/11 04:01:34;;;;;;;0.50;0.50;;;;;;;;;;5046251;28;20498;-59
2023/11/11 04:04:01;;;;;;;1.20;0.55;;;;;;;;;;5045893;28;20735;-58
2023/11/11 04:06:27;;;;;;;0.98;0.40;;;;;;;;;;5045255;28;20037;-58
2023/11/11 04:08:53;;;;;;;1.15;0.45;;;;;;;;;;5045724;28;20044;-58
2023/11/11 04:11:22;;;;;;;1.48;0.70;;;;;;;;;;5047345;28;20060;-59
2023/11/11 04:13:48;;;;;;;1.00;0.60;;;;;;;;;;5044030;28;20040;-58
2023/11/11 04:16:14;;;;;;;1.23;0.50;;;;;;;;;;5046000;28;20041;-57
2023/11/11 04:18:41;;;;;;;1.67;0.60;;;;;;;;;;5045955;28;20417;-58
2023/11/11 04:21:10;;;;;;;0.77;0.70;;;;;;;;;;5046077;28;20037;-58
2023/11/11 04:23:36;;;;;;;0.80;0.80;;;;;;;;;;5045709;28;20032;-58
2023/11/11 04:26:02;;;;;;;1.40;1.00;;;;;;;;;;5044995;28;20061;-58
2023/11/11 04:28:28;;;;;;;1.42;0.90;;;;;;;;;;5046509;28;20045;-59
2023/11/11 04:30:54;;;;;;;1.85;1.00;;;;;;;;;;5047317;28;20044;-58
2023/11/11 04:33:20;;;;;;;5.65;1.27;;;;;;;;;;5046945;28;20056;-58
2023/11/11 04:35:46;;;;;;;1.70;1.15;;;;;;;;;;5044372;28;20049;-58
2023/11/11 04:38:12;;;;;;;3.67;1.40;;;;;;;;;;5046212;28;20041;-58
2023/11/11 04:40:39;;;;;;;1.60;0.82;;;;;;;;;;5047720;28;20037;-58
2023/11/11 04:43:05;;;;;;;2.13;1.10;;;;;;;;;;5041289;28;20409;-58
2023/11/11 04:45:31;;;;;;;1.67;1.15;;;;;;;;;;5045380;28;20041;-58
2023/11/11 04:47:57;;;;;;;1.98;1.50;;;;;;;;;;5046723;28;20043;-58
2023/11/11 04:50:24;;;;;;;2.72;1.25;;;;;;;;;;5047109;28;20057;-58
2023/11/11 04:52:51;;;;;;;2.85;1.60;;;;;;;;;;5047452;28;20056;-59
2023/11/11 04:55:18;;;;;;;2.95;1.40;;;;;;;;;;5045496;28;20576;-59
2023/11/11 04:57:44;;;;;;;2.85;1.33;;;;;;;;;;5047980;28;20498;-59
2023/11/11 05:00:10;;;;;;;3.22;1.52;;;;;;;;;;5049799;28;20049;-59
2023/11/11 05:02:40;;;;;;;2.33;1.77;;;;;;;;;;5049683;28;20052;-57
2023/11/11 05:05:10;;;;;;;2.72;1.70;;;;;;;;;;5047673;28;20035;-59
2023/11/11 05:07:39;;;;;;;7.18;2.10;;;;;;;;;;5042552;28;20521;-59
2023/11/11 05:10:15;;;;;;;3.10;1.60;;;;;;;;;;5046851;28;20049;-58
2023/11/11 05:12:41;;;;;;;2.50;1.60;;;;;;;;;;5049062;28;20036;-58
2023/11/11 05:15:14;;;;;;;3.65;2.00;;;;;;;;;;5048752;28;20394;-58
2023/11/11 05:17:42;;;;;;;2.60;1.58;;;;;;;;;;5044600;28;20056;-58
2023/11/11 05:20:10;;;;;;;3.10;1.75;;;;;;;;;;5048627;28;20045;-58
2023/11/11 05:22:37;;;;;;;2.10;1.67;;;;;;;;;;5046773;28;20032;-57
2023/11/11 05:25:04;;;;;;;4.35;1.98;;;;;;;;;;5042451;28;20033;-57
2023/11/11 05:27:30;;;;;;;6.25;1.90;;;;;;;;;;5044008;28;20048;-58
2023/11/11 05:29:57;;;;;;;3.05;2.05;;;;;;;;;;5044055;28;20037;-58
2023/11/11 05:32:24;;;;;;;7.72;1.88;;;;;;;;;;5048522;28;20051;-57
2023/11/11 05:34:52;;;;;;;4.93;2.10;;;;;;;;;;5049139;28;20073;-58
2023/11/11 05:37:19;;;;;;;3.42;2.08;;;;;;;;;;5044786;28;20025;-57
2023/11/11 05:39:45;;;;;;;3.60;2.38;;;;;;;;;;5042524;28;20060;-57
2023/11/11 05:42:12;;;;;;;4.47;1.70;;;;;;;;;;5049692;28;20670;-57
2023/11/11 05:44:40;;;;;;;4.55;1.95;;;;;;;;;;5050117;28;20045;-58
2023/11/11 05:47:07;;;;;;;5.13;2.25;;;;;;;;;;5049330;28;20514;-58
2023/11/11 05:49:33;;;;;;;3.80;2.00;;;;;;;;;;5049695;28;20036;-58
2023/11/11 05:52:01;;;;;;;4.88;2.53;;;;;;;;;;5050349;28;20040;-57
2023/11/11 05:54:27;;;;;;;4.45;2.08;;;;;;;;;;5049261;28;20060;-58
2023/11/11 05:56:54;;;;;;;3.15;2.05;;;;;;;;;;5046890;28;20034;-57
2023/11/11 05:59:20;;;;;;;4.13;2.45;;;;;;;;;;5048104;28;20029;-58
2023/11/11 06:01:46;;;;;;;2.72;2.00;;;;;;;;;;5049881;28;20056;-57
2023/11/11 06:04:14;;;;;;;3.70;2.13;;;;;;;;;;5045933;28;20048;-58
2023/11/11 06:06:41;;;;;;;4.55;2.28;;;;;;;;;;5049458;28;20682;-58
2023/11/11 06:09:10;;;;;;;3.35;2.10;;;;;;;;;;5044324;28;20048;-58
2023/11/11 06:11:45;;;;;;;8.68;2.22;;;;;;;;;;5049362;28;20048;-58
2023/11/11 06:14:18;;;;;;;6.95;2.55;;;;;;;;;;5045012;28;20121;-58
2023/11/11 06:16:45;;;;;;;6.50;2.70;;;;;;;;;;5045982;28;20028;-57
2023/11/11 06:19:12;;;;;;;6.38;3.10;;;;;;;;;;5044975;28;20025;-58
2023/11/11 06:21:38;;;;;;;6.32;2.35;;;;;;;;;;5047725;28;20520;-58
2023/11/11 06:24:05;;;;;;;5.82;2.00;;;;;;;;;;5049190;28;20057;-58
2023/11/11 06:26:31;;;;;;;5.50;2.67;;;;;;;;;;5040600;28;20041;-59
2023/11/11 06:28:58;;;;;;;7.40;3.00;;;;;;;;;;5044654;28;20035;-58
2023/11/11 06:31:24;;;;;;;5.45;2.75;;;;;;;;;;5048031;28;20051;-59
2023/11/11 06:33:51;;;;;;;7.03;2.78;;;;;;;;;;5046490;28;20037;-59
2023/11/11 06:36:18;;;;;;;8.43;3.17;;;;;;;;;;5045777;28;20041;-59
2023/11/11 06:38:44;;;;;;;6.28;2.70;;;;;;;;;;5047320;28;20068;-58
2023/11/11 06:41:11;;;;;;;6.65;2.58;;;;;;;;;;5043795;28;20045;-59
2023/11/11 06:43:38;;;;;;;3.78;2.33;;;;;;;;;;5046815;28;20048;-58
2023/11/11 06:46:06;;;;;;;6.63;3.50;;;;;;;;;;5043051;28;20040;-58
2023/11/11 06:48:33;;;;;;;9.98;3.72;;;;;;;;;;5046344;28;20494;-59
2023/11/11 06:50:59;;;;;;;6.13;3.40;;;;;;;;;;5048279;28;20036;-60
2023/11/11 06:53:26;;;;;;;10.05;3.20;;;;;;;;;;5046721;28;20033;-59
2023/11/11 06:55:52;;;;;;;6.28;3.13;;;;;;;;;;5048394;28;20387;-59
2023/11/11 06:58:18;;;;;;;8.10;3.38;;;;;;;;;;5042915;28;20051;-59
2023/11/11 07:00:44;;;;;;;5.97;3.15;;;;;;;;;;5047484;28;20414;-59
2023/11/11 07:03:11;;;;;;;9.05;3.60;;;;;;;;;;5041519;28;20047;-59
2023/11/11 07:05:37;;;;;;;7.05;3.17;;;;;;;;;;5046428;28;20052;-59
2023/11/11 07:08:05;;;;;;;6.65;3.63;;;;;;;;;;5045808;28;20036;-59
2023/11/11 07:10:33;;;;;;;10.90;3.60;;;;;;;;;;5046366;28;20049;-59
2023/11/11 07:13:01;;;;;;;8.05;3.55;;;;;;;;;;5044160;28;20035;-58
2023/11/11 07:15:27;;;;;;;8.60;4.30;;;;;;;;;;5042961;28;20029;-58
2023/11/11 07:17:54;;;;;;;6.35;2.97;;;;;;;;;;5043652;28;20032;-59
2023/11/11 07:20:21;;;;;;;8.77;3.00;;;;;;;;;;5044142;28;20048;-59
2023/11/11 07:22:54;;;;;;;10.52;3.42;;;;;;;;;;5044330;28;20044;-58
2023/11/11 07:25:23;;;;;;;12.48;4.38;;;;;;;;;;5046885;28;20048;-58
2023/11/11 07:27:50;;;;;;;13.13;3.13;;;;;;;;;;5045532;28;20029;-58
2023/11/11 07:30:16;;;;;;;12.25;3.45;;;;;;;;;;5046406;28;20051;-58
2023/11/11 07:32:44;;;;;;;9.55;3.33;;;;;;;;;;5044405;28;20052;-58
2023/11/11 07:35:11;;;;;;;5.53;2.83;;;;;;;;;;5044518;28;20041;-58
2023/11/11 07:37:38;;;;;;;6.18;3.20;;;;;;;;;;5046902;28;20414;-58
2023/11/11 07:40:05;;;;;;;8.52;3.03;;;;;;;;;;5043690;28;20053;-59
2023/11/11 07:42:32;;;;;;;10.07;3.22;;;;;;;;;;5044859;28;20049;-58
2023/11/11 07:44:59;;;;;;;9.07;2.80;;;;;;;;;;5047710;28;20036;-58
2023/11/11 07:47:25;;;;;;;6.88;3.10;;;;;;;;;;5042326;28;20046;-58
2023/11/11 07:49:51;;;;;;;7.35;2.67;;;;;;;;;;5046409;28;20067;-59
2023/11/11 07:52:17;;;;;;;4.80;2.90;;;;;;;;;;5046644;28;20371;-58
2023/11/11 07:54:43;;;;;;;6.32;2.97;;;;;;;;;;5045582;28;20041;-58
2023/11/11 07:57:10;;;;;;;6.50;2.72;;;;;;;;;;5042102;28;20032;-61
2023/11/11 07:59:37;;;;;;;8.27;3.40;;;;;;;;;;5046286;28;20045;-58
2023/11/11 08:02:03;;;;;;;8.35;3.17;;;;;;;;;;5047663;28;20056;-59
2023/11/11 08:04:30;;;;;;;8.15;3.20;;;;;;;;;;5035804;28;20053;-62
2023/11/11 08:06:56;;;;;;;5.80;2.78;;;;;;;;;;5038666;28;20034;-59
2023/11/11 08:09:22;;;;;;;11.68;3.35;;;;;;;;;;5044192;28;20032;-59
2023/11/11 08:11:49;;;;;;;7.32;2.70;;;;;;;;;;5046146;28;20045;-59
2023/11/11 08:14:15;;;;;;;12.73;5.25;;;;;;;;;;5045713;28;20041;-58
2023/11/11 08:16:41;;;;;;;8.52;3.20;;;;;;;;;;5047288;28;20641;-59
2023/11/11 08:19:08;;;;;;;5.82;3.00;;;;;;;;;;5046820;28;20399;-58
2023/11/11 08:21:35;;;;;;;7.32;3.42;;;;;;;;;;5047201;28;20029;-58
2023/11/11 08:24:03;;;;;;;5.80;3.45;;;;;;;;;;5045458;28;20045;-58
2023/11/11 08:26:29;;;;;;;9.50;2.97;;;;;;;;;;5037921;28;20049;-59
2023/11/11 08:28:56;;;;;;;5.88;3.00;;;;;;;;;;5036314;28;20426;-58
2023/11/11 08:31:22;;;;;;;7.18;2.83;;;;;;;;;;5043929;28;20398;-58
2023/11/11 08:33:49;;;;;;;5.57;2.67;;;;;;;;;;5045858;28;20052;-58
2023/11/11 08:36:15;;;;;;;7.18;3.05;;;;;;;;;;5047840;28;20036;-62
2023/11/11 08:38:41;;;;;;;9.77;3.08;;;;;;;;;;5051040;28;20514;-59
2023/11/11 08:41:08;;;;;;;10.00;3.67;;;;;;;;;;5049985;28;20041;-59
2023/11/11 08:43:35;;;;;;;8.23;3.70;;;;;;;;;;5046443;28;20040;-59
2023/11/11 08:46:01;;;;;;;13.85;6.65;;;;;;;;;;5050362;28;20045;-59
2023/11/11 08:48:30;;;;;;;9.80;3.85;;;;;;;;;;5049662;28;20502;-59
2023/11/11 08:50:57;;;;;;;8.18;3.28;;;;;;;;;;5048944;28;20037;-58
2023/11/11 08:53:24;;;;;;;5.55;2.85;;;;;;;;;;5048324;28;20040;-59
2023/11/11 08:55:50;;;;;;;9.45;3.33;;;;;;;;;;5050055;28;20525;-59
2023/11/11 08:58:16;;;;;;;11.90;3.50;;;;;;;;;;5046573;28;20037;-59
2023/11/11 09:00:45;;;;;;;7.22;3.20;;;;;;;;;;5045692;28;20052;-59
2023/11/11 09:03:12;;;;;;;10.18;3.67;;;;;;;;;;5041814;28;20052;-58
2023/11/11 09:05:38;;;;;;;8.43;3.25;;;;;;;;;;5050365;28;20044;-58
2023/11/11 09:08:06;;;;;;;9.95;3.58;;;;;;;;;;5048938;28;20052;-59
2023/11/11 09:10:32;;;;;;;4.43;2.50;;;;;;;;;;5048942;28;20061;-59
2023/11/11 09:12:58;;;;;;;7.32;3.17;;;;;;;;;;5049678;28;20089;-58
2023/11/11 09:15:24;;;;;;;4.88;2.60;;;;;;;;;;5045789;28;20025;-58
2023/11/11 09:17:50;;;;;;;5.10;2.47;;;;;;;;;;5049607;28;20045;-59
2023/11/11 09:20:17;;;;;;;7.03;3.30;;;;;;;;;;5049933;28;20049;-58
2023/11/11 09:22:43;;;;;;;7.32;3.03;;;;;;;;;;5050158;28;20040;-59
2023/11/11 09:25:09;;;;;;;5.50;2.65;;;;;;;;;;5049398;28;20422;-58
2023/11/11 09:27:35;;;;;;;5.13;2.72;;;;;;;;;;5042409;28;20045;-58
2023/11/11 09:30:02;;;;;;;6.25;3.08;;;;;;;;;;5046449;28;20037;-58
2023/11/11 09:32:29;;;;;;;6.55;3.72;;;;;;;;;;5044603;28;20028;-60
2023/11/11 09:34:55;;;;;;;6.82;3.13;;;;;;;;;;5045257;28;20395;-59
2023/11/11 09:37:21;;;;;;;7.50;3.55;;;;;;;;;;5047832;28;20529;-58
2023/11/11 09:39:47;;;;;;;5.32;3.05;;;;;;;;;;5046906;28;20059;-60
2023/11/11 09:42:14;;;;;;;4.60;1.95;;;;;;;;;;5047743;28;20040;-59
2023/11/11 09:44:40;;;;;;;4.57;2.35;;;;;;;;;;5049777;28;20482;-59
2023/11/11 09:47:13;;;;;;;4.63;2.70;;;;;;;;;;5048384;28;20048;-59
2023/11/11 09:49:40;;;;;;;6.05;3.00;;;;;;;;;;5049943;28;20505;-59
2023/11/11 09:52:11;;;;;;;7.05;2.83;;;;;;;;;;5050298;28;20029;-59
2023/11/11 09:54:40;;;;;;;4.72;2.53;;;;;;;;;;5049983;28;20041;-59
2023/11/11 09:57:10;;;;;;;5.20;2.58;;;;;;;;;;5049697;28;20041;-59
2023/11/11 09:59:38;;;;;;;16.67;2.97;;;;;;;;;;5046207;28;20032;-59
2023/11/11 10:02:06;;;;;;;8.43;2.97;;;;;;;;;;5050169;28;20053;-59
2023/11/11 10:04:33;;;;;;;5.57;2.80;;;;;;;;;;5046328;28;20025;-59
2023/11/11 10:06:59;;;;;;;4.78;2.50;;;;;;;;;;5049445;28;20426;-59
2023/11/11 10:09:25;;;;;;;6.05;2.60;;;;;;;;;;5049314;28;20415;-58
2023/11/11 10:11:52;;;;;;;5.65;2.60;;;;;;;;;;5047547;28;20032;-59
2023/11/11 10:14:21;;;;;;;6.85;3.05;;;;;;;;;;5047365;28;20048;-59
2023/11/11 10:16:52;;;;;;;5.57;2.97;;;;;;;;;;5049361;28;20036;-59
2023/11/11 10:19:18;;;;;;;6.85;3.10;;;;;;;;;;5045774;28;20076;-59
2023/11/11 10:21:45;;;;;;;4.50;3.03;;;;;;;;;;5048311;28;20045;-59
2023/11/11 10:24:11;;;;;;;4.85;3.00;;;;;;;;;;5049581;28;20037;-60
2023/11/11 10:26:40;;;;;;;5.07;2.83;;;;;;;;;;5048198;28;20029;-59
2023/11/11 10:29:07;;;;;;;8.17;3.13;;;;;;;;;;5044286;28;20119;-59
2023/11/11 10:31:36;;;;;;;7.00;2.75;;;;;;;;;;5047145;28;21287;-59
2023/11/11 10:34:02;;;;;;;5.05;3.03;;;;;;;;;;5048930;28;20056;-60
2023/11/11 10:36:46;;;;;;;3.25;2.30;;;;;;;;;;5046222;28;20056;-59
2023/11/11 10:39:13;;;;;;;6.00;2.53;;;;;;;;;;5044743;28;20056;-59
2023/11/11 10:41:39;;;;;;;5.55;2.60;;;;;;;;;;5049357;28;20044;-59
2023/11/11 10:44:07;;;;;;;5.68;2.47;;;;;;;;;;5046184;28;20047;-59
2023/11/11 10:46:37;;;;;;;5.95;2.38;;;;;;;;;;5041429;28;20042;-59
2023/11/11 10:49:04;;;;;;;5.80;3.00;;;;;;;;;;5044177;28;20037;-59
2023/11/11 10:51:31;;;;;;;8.70;3.17;;;;;;;;;;5048248;28;20044;-60
2023/11/11 10:54:01;;;;;;;6.55;3.38;;;;;;;;;;5045427;28;20056;-60
2023/11/11 10:56:28;;;;;;;5.03;2.13;;;;;;;;;;5043462;28;20052;-60
2023/11/11 10:58:56;;;;;;;5.88;2.85;;;;;;;;;;5043997;28;20047;-60
2023/11/11 11:01:24;;;;;;;11.57;3.60;;;;;;;;;;5044697;28;20034;-59
2023/11/11 11:03:51;;;;;;;5.47;2.63;;;;;;;;;;5043851;28;20041;-59
2023/11/11 11:06:31;;;;;;;15.43;4.55;;;;;;;;;;5046263;28;20033;-60
2023/11/11 11:09:27;;;;;;;10.27;4.13;;;;;;;;;;5045888;28;20040;-58
2023/11/11 11:11:59;;;;;;;5.57;2.58;;;;;;;;;;5039006;28;20036;-58
2023/11/11 11:14:55;;;;;;;5.97;3.33;;;;;;;;;;5041691;28;20767;-59
2023/11/11 11:17:53;;;;;;;4.00;2.05;;;;;;;;;;5043514;28;20214;-58
2023/11/11 11:20:25;;;;;;;3.50;2.20;;;;;;;;;;5040945;28;20045;-58
2023/11/11 11:22:59;;;;;;;5.05;2.40;;;;;;;;;;5046146;28;20025;-60
2023/11/11 11:25:36;;;;;;;12.63;3.92;;;;;;;;;;5045543;28;20045;-60
2023/11/11 11:28:24;;;;;;;8.85;3.55;;;;;;;;;;5040152;28;20499;-62
2023/11/11 11:30:58;;;;;;;4.05;2.80;;;;;;;;;;5047447;28;20505;-61
2023/11/11 11:33:35;;;;;;;6.15;2.60;;;;;;;;;;5046561;28;20433;-60
2023/11/11 11:36:06;;;;;;;3.83;2.20;;;;;;;;;;5045222;28;20041;-59
2023/11/11 11:38:34;;;;;;;3.92;2.05;;;;;;;;;;5044273;28;20080;-58
2023/11/11 11:41:02;;;;;;;3.25;1.70;;;;;;;;;;5043127;28;20148;-59
2023/11/11 11:43:34;;;;;;;2.45;1.65;;;;;;;;;;5045926;28;20264;-59
2023/11/11 11:46:01;;;;;;;3.17;1.65;;;;;;;;;;5045812;28;20520;-58
2023/11/11 11:48:29;;;;;;;3.47;1.98;;;;;;;;;;5046984;28;20513;-59
2023/11/11 11:51:08;;;;;;;4.07;2.42;;;;;;;;;;5048128;28;20033;-59
2023/11/11 11:53:36;;;;;;;4.43;1.80;;;;;;;;;;5047824;28;20053;-59
2023/11/11 11:56:05;;;;;;;4.95;1.92;;;;;;;;;;5047556;28;20033;-58
2023/11/11 11:58:45;;;;;;;2.00;1.33;;;;;;;;;;5046639;28;20064;-59
2023/11/11 12:01:19;;;;;;;4.35;1.88;;;;;;;;;;5045478;28;20037;-60
2023/11/11 12:03:45;;;;;;;4.60;2.45;;;;;;;;;;5044433;28;20033;-58
2023/11/11 12:06:11;;;;;;;3.80;1.70;;;;;;;;;;5047315;28;20037;-59
2023/11/11 12:08:46;;;;;;;3.75;1.88;;;;;;;;;;5046769;28;20048;-58
2023/11/11 12:11:13;;;;;;;3.22;1.60;;;;;;;;;;5044548;28;20029;-59
2023/11/11 12:13:39;;;;;;;2.08;1.50;;;;;;;;;;5040601;28;20055;-59
2023/11/11 12:16:05;;;;;;;4.03;2.40;;;;;;;;;;5045405;28;20057;-59
2023/11/11 12:18:33;;;;;;;6.50;2.78;;;;;;;;;;5042545;28;20057;-58
2023/11/11 12:21:00;;;;;;;8.20;3.83;;;;;;;;;;5046072;28;20025;-58
2023/11/11 12:23:28;;;;;;;3.60;2.13;;;;;;;;;;5044133;28;20529;-58
2023/11/11 12:25:54;;;;;;;4.45;2.00;;;;;;;;;;5042850;28;20513;-58
2023/11/11 12:28:20;;;;;;;2.83;1.90;;;;;;;;;;5041618;28;20052;-58
2023/11/11 12:30:46;;;;;;;6.70;2.00;;;;;;;;;;5046165;28;20038;-59
2023/11/11 12:33:12;;;;;;;3.67;1.70;;;;;;;;;;5047851;28;20032;-58
2023/11/11 12:35:42;;;;;;;3.00;1.65;;;;;;;;;;5045419;28;20052;-59
2023/11/11 12:38:25;;;;;;;4.50;1.55;;;;;;;;;;5043039;28;20044;-59
2023/11/11 12:40:52;;;;;;;3.63;1.75;;;;;;;;;;5044407;28;20044;-59
2023/11/11 12:43:29;;;;;;;5.72;1.85;;;;;;;;;;5044204;28;20037;-59
2023/11/11 12:45:55;;;;;;;3.25;1.83;;;;;;;;;;5045187;28;20665;-59
2023/11/11 12:48:23;;;;;;;4.85;2.15;;;;;;;;;;5045928;28;20045;-58
2023/11/11 12:50:52;;;;;;;4.80;1.65;;;;;;;;;;5047216;28;20045;-59
2023/11/11 12:53:20;;;;;;;5.35;2.17;;;;;;;;;;5045343;28;20051;-59
2023/11/11 12:55:47;;;;;;;5.35;2.40;;;;;;;;;;5044565;28;20044;-59
2023/11/11 12:58:26;;;;;;;7.88;3.47;;;;;;;;;;5039779;28;20052;-58
2023/11/11 13:00:57;;;;;;;5.20;2.13;;;;;;;;;;5045172;28;20048;-59
2023/11/11 13:03:26;;;;;;;5.63;2.10;;;;;;;;;;5043836;28;20049;-59
2023/11/11 13:05:54;;;;;;;6.00;1.73;;;;;;;;;;5043282;28;20037;-59
2023/11/11 13:08:21;;;;;;;4.82;1.67;;;;;;;;;;5041467;28;20056;-59
2023/11/11 13:10:52;;;;;;;5.65;1.80;;;;;;;;;;5046897;28;20060;-59
2023/11/11 13:13:20;;;;;;;3.65;1.60;;;;;;;;;;5040842;28;20521;-58
2023/11/11 13:15:48;;;;;;;4.03;1.88;;;;;;;;;;5039267;28;20032;-59
2023/11/11 13:18:16;;;;;;;4.13;2.08;;;;;;;;;;5044169;28;20040;-59
2023/11/11 13:20:46;;;;;;;2.78;2.10;;;;;;;;;;5045921;28;20048;-59
2023/11/11 13:23:14;;;;;;;2.63;1.70;;;;;;;;;;5046483;28;20040;-60
2023/11/11 13:25:41;;;;;;;4.75;1.60;;;;;;;;;;5049593;28;20049;-60
2023/11/11 13:28:08;;;;;;;5.00;2.60;;;;;;;;;;5048198;28;20044;-59
2023/11/11 13:30:35;;;;;;;3.40;2.00;;;;;;;;;;5049197;28;20031;-58
2023/11/11 13:33:01;;;;;;;3.60;1.38;;;;;;;;;;5050320;28;20064;-58
2023/11/11 13:35:30;;;;;;;3.83;1.92;;;;;;;;;;5049004;28;20524;-58
2023/11/11 13:37:57;;;;;;;3.67;1.98;;;;;;;;;;5047797;28;20356;-60
2023/11/11 13:40:28;;;;;;;5.72;2.35;;;;;;;;;;5043631;28;20040;-58
2023/11/11 13:42:55;;;;;;;2.72;1.90;;;;;;;;;;5050209;28;20116;-58
2023/11/11 13:45:23;;;;;;;4.50;1.85;;;;;;;;;;5045956;28;20033;-58
2023/11/11 13:47:50;;;;;;;3.42;1.48;;;;;;;;;;5049732;28;20488;-59
2023/11/11 13:50:17;;;;;;;3.53;1.42;;;;;;;;;;5046711;28;20045;-59
2023/11/11 13:52:43;;;;;;;2.80;1.30;;;;;;;;;;5049920;28;20029;-60
2023/11/11 13:55:10;;;;;;;2.55;1.40;;;;;;;;;;5045179;28;20053;-59
2023/11/11 13:57:36;;;;;;;3.38;1.80;;;;;;;;;;5046989;28;20052;-59
2023/11/11 14:00:06;;;;;;;2.45;1.60;;;;;;;;;;5049500;28;20040;-58
2023/11/11 14:02:33;;;;;;;4.60;1.58;;;;;;;;;;5048325;28;20048;-59
2023/11/11 14:04:59;;;;;;;2.97;1.60;;;;;;;;;;5048439;28;20040;-60
2023/11/11 14:07:27;;;;;;;2.72;1.83;;;;;;;;;;5049320;28;20417;-60
2023/11/11 14:09:54;;;;;;;3.65;2.10;;;;;;;;;;5049129;28;20448;-59
2023/11/11 14:12:20;;;;;;;5.95;2.28;;;;;;;;;;5047141;28;20037;-59
2023/11/11 14:14:47;;;;;;;5.43;2.67;;;;;;;;;;5043325;28;20045;-59
2023/11/11 14:17:13;;;;;;;3.75;2.08;;;;;;;;;;5042049;28;20097;-59
2023/11/11 14:19:39;;;;;;;2.90;1.88;;;;;;;;;;5047742;28;20057;-58
2023/11/11 14:22:05;;;;;;;3.25;1.98;;;;;;;;;;5046330;28;20053;-59
2023/11/11 14:24:31;;;;;;;5.60;2.72;;;;;;;;;;5047976;28;20049;-60
2023/11/11 14:26:57;;;;;;;3.72;1.80;;;;;;;;;;5034563;28;20045;-59
2023/11/11 14:29:23;;;;;;;3.72;1.90;;;;;;;;;;5043989;28;20056;-59
2023/11/11 14:31:49;;;;;;;2.72;1.48;;;;;;;;;;5049666;28;20041;-60
2023/11/11 14:34:15;;;;;;;1.77;1.30;;;;;;;;;;5048092;28;20036;-59
2023/11/11 14:36:41;;;;;;;5.03;1.83;;;;;;;;;;5046089;28;20041;-59
2023/11/11 14:39:08;;;;;;;3.97;1.90;;;;;;;;;;5046448;28;20064;-59
2023/11/11 14:41:35;;;;;;;2.72;1.48;;;;;;;;;;5049052;28;20037;-59
2023/11/11 14:44:02;;;;;;;3.78;1.90;;;;;;;;;;5049254;28;20060;-59
2023/11/11 14:46:30;;;;;;;3.00;1.85;;;;;;;;;;5045231;28;20041;-59